createdAt,value
2019-04-16T00:01:22.439Z,6.30
2019-04-16T00:02:59.351Z,8.00
2019-04-16T00:04:43.531Z,8.40
2019-04-16T00:06:28.359Z,8.33
2019-04-16T00:08:27.147Z,7.87
2019-04-16T00:10:10.221Z,7.40
2019-04-16T00:11:51.120Z,8.00
2019-04-16T00:13:30.556Z,7.27
2019-04-16T00:15:08.329Z,7.47
2019-04-16T00:16:45.246Z,7.70
2019-04-16T00:18:21.744Z,7.30
2019-04-16T00:19:58.117Z,6.57
2019-04-16T00:21:51.173Z,6.70
2019-04-16T00:23:29.902Z,6.73
2019-04-16T00:25:07.447Z,6.70
2019-04-16T00:26:43.838Z,6.83
2019-04-16T00:28:20.025Z,8.53
2019-04-16T00:29:56.541Z,10.47
2019-04-16T00:31:34.283Z,9.57
2019-04-16T00:33:11.573Z,9.83
2019-04-16T00:34:48.986Z,8.70
2019-04-16T00:36:25.185Z,7.43
2019-04-16T00:38:01.396Z,6.67
2019-04-16T00:39:37.581Z,6.73
2019-04-16T00:41:13.865Z,7.27
2019-04-16T00:42:50.133Z,6.17
2019-04-16T00:44:26.575Z,5.30
2019-04-16T00:46:02.892Z,6.10
2019-04-16T00:47:39.227Z,6.10
2019-04-16T00:49:15.726Z,5.83
2019-04-16T00:50:51.910Z,6.00
2019-04-16T00:52:28.222Z,5.37
2019-04-16T00:54:09.710Z,5.80
2019-04-16T00:55:45.048Z,6.10
2019-04-16T00:57:21.715Z,5.47
2019-04-16T00:58:57.658Z,5.40
2019-04-16T01:00:33.957Z,5.57
2019-04-16T01:02:10.360Z,5.77
2019-04-16T01:03:46.515Z,5.60
2019-04-16T01:05:22.920Z,5.60
2019-04-16T01:06:59.130Z,5.23
2019-04-16T01:08:35.323Z,5.60
2019-04-16T01:10:11.772Z,6.20
2019-04-16T01:11:49.026Z,6.13
2019-04-16T01:13:25.961Z,6.57
2019-04-16T01:15:02.145Z,6.70
2019-04-16T01:16:38.586Z,6.17
2019-04-16T01:18:14.837Z,6.03
2019-04-16T01:19:52.202Z,6.83
2019-04-16T01:21:28.548Z,6.43
2019-04-16T01:23:04.921Z,6.53
2019-04-16T01:24:41.079Z,6.73
2019-04-16T01:26:17.551Z,6.87
2019-04-16T01:27:59.826Z,6.87
2019-04-16T01:29:33.871Z,7.67
2019-04-16T01:31:15.217Z,5.90
2019-04-16T01:32:58.862Z,6.97
2019-04-16T01:34:47.146Z,6.80
2019-04-16T01:36:37.235Z,8.73
2019-04-16T01:38:21.993Z,7.00
2019-04-16T01:39:59.973Z,6.80
2019-04-16T01:41:36.230Z,8.03
2019-04-16T01:43:12.568Z,7.43
2019-04-16T01:44:48.837Z,6.50
2019-04-16T01:46:37.419Z,6.70
2019-04-16T01:48:13.790Z,7.03
2019-04-16T01:49:50.150Z,7.03
2019-04-16T01:51:26.573Z,6.93
2019-04-16T01:53:02.908Z,8.10
2019-04-16T01:54:39.206Z,9.53
2019-04-16T01:56:15.569Z,7.33
2019-04-16T01:57:51.874Z,7.77
2019-04-16T01:59:30.730Z,7.43
2019-04-16T02:01:11.387Z,7.60
2019-04-16T02:02:47.739Z,7.87
2019-04-16T02:04:24.105Z,8.03
2019-04-16T02:06:00.529Z,7.87
2019-04-16T02:07:37.024Z,7.50
2019-04-16T02:09:22.539Z,8.07
2019-04-16T02:10:52.650Z,7.20
2019-04-16T02:12:29.078Z,8.53
2019-04-16T02:14:06.191Z,7.20
2019-04-16T02:15:43.604Z,7.67
2019-04-16T02:17:19.943Z,7.40
2019-04-16T02:19:00.823Z,5.43
2019-04-16T02:20:38.443Z,8.40
2019-04-16T02:22:14.033Z,8.13
2019-04-16T02:23:50.488Z,6.97
2019-04-16T02:25:26.749Z,7.50
2019-04-16T02:27:03.147Z,8.43
2019-04-16T02:28:39.405Z,8.20
2019-04-16T02:30:16.133Z,7.50
2019-04-16T02:31:52.534Z,7.07
2019-04-16T02:33:29.049Z,8.23
2019-04-16T02:35:07.904Z,8.93
2019-04-16T02:36:44.072Z,7.87
2019-04-16T02:38:20.164Z,8.23
2019-04-16T02:39:56.340Z,7.57
2019-04-16T02:41:32.670Z,7.13
2019-04-16T02:43:08.996Z,8.47
2019-04-16T02:44:49.108Z,7.93
2019-04-16T02:46:23.402Z,7.67
2019-04-16T02:47:59.703Z,8.60
2019-04-16T02:49:36.082Z,7.87
2019-04-16T02:51:17.881Z,6.23
2019-04-16T02:52:59.340Z,8.80
2019-04-16T02:54:35.433Z,8.93
2019-04-16T02:56:31.797Z,9.27
2019-04-16T02:58:15.335Z,7.30
2019-04-16T02:59:52.513Z,9.23
2019-04-16T03:01:28.809Z,9.03
2019-04-16T03:03:18.484Z,7.40
2019-04-16T03:04:58.439Z,7.03
2019-04-16T03:06:34.506Z,10.37
2019-04-16T03:08:10.813Z,11.37
2019-04-16T03:10:00.354Z,10.43
2019-04-16T03:11:25.248Z,9.70
2019-04-16T03:13:01.865Z,9.57
2019-04-16T03:14:38.295Z,9.20
2019-04-16T03:16:17.405Z,9.40
2019-04-16T03:17:53.743Z,9.20
2019-04-16T03:19:34.596Z,10.53
2019-04-16T03:21:10.946Z,9.60
2019-04-16T03:22:47.463Z,10.17
2019-04-16T03:24:23.988Z,9.63
2019-04-16T03:26:00.136Z,9.23
2019-04-16T03:27:36.413Z,9.50
2019-04-16T03:29:13.777Z,9.27
2019-04-16T03:30:50.072Z,10.03
2019-04-16T03:32:33.182Z,9.30
2019-04-16T03:34:04.815Z,8.80
2019-04-16T03:35:41.007Z,9.47
2019-04-16T03:37:17.411Z,9.33
2019-04-16T03:38:53.674Z,8.37
2019-04-16T03:40:29.903Z,9.20
2019-04-16T03:42:07.413Z,10.27
2019-04-16T03:43:43.691Z,8.13
2019-04-16T03:45:20.114Z,10.03
2019-04-16T03:46:56.813Z,9.33
2019-04-16T03:48:33.075Z,10.07
2019-04-16T03:50:12.188Z,9.80
2019-04-16T03:51:48.282Z,10.27
2019-04-16T03:53:24.445Z,9.97
2019-04-16T03:55:00.768Z,9.83
2019-04-16T03:56:36.892Z,9.03
2019-04-16T03:58:13.133Z,10.30
2019-04-16T03:59:49.432Z,10.00
2019-04-16T04:01:25.729Z,9.53
2019-04-16T04:03:02.166Z,10.03
2019-04-16T04:04:38.459Z,10.53
2019-04-16T04:06:14.700Z,10.87
2019-04-16T04:07:50.990Z,9.93
2019-04-16T04:09:27.347Z,10.20
2019-04-16T04:11:03.155Z,10.40
2019-04-16T04:12:39.315Z,11.27
2019-04-16T04:14:15.561Z,10.87
2019-04-16T04:15:54.854Z,10.30
2019-04-16T04:17:30.317Z,10.67
2019-04-16T04:19:06.656Z,9.97
2019-04-16T04:20:43.054Z,10.20
2019-04-16T04:22:19.217Z,10.40
2019-04-16T04:23:59.714Z,9.63
2019-04-16T04:25:35.969Z,10.30
2019-04-16T04:27:14.427Z,10.27
2019-04-16T04:28:51.767Z,11.33
2019-04-16T04:30:28.928Z,10.07
2019-04-16T04:32:05.658Z,10.33
2019-04-16T04:33:43.069Z,10.80
2019-04-16T04:35:21.830Z,10.43
2019-04-16T04:36:59.879Z,10.70
2019-04-16T04:38:37.535Z,11.07
2019-04-16T04:40:16.043Z,9.70
2019-04-16T04:41:52.575Z,10.73
2019-04-16T04:43:31.952Z,10.73
2019-04-16T04:45:10.227Z,9.93
2019-04-16T04:46:47.089Z,9.70
2019-04-16T04:48:24.291Z,10.40
2019-04-16T04:50:03.305Z,9.20
2019-04-16T04:51:42.643Z,10.33
2019-04-16T04:53:19.447Z,10.30
2019-04-16T04:54:54.923Z,10.83
2019-04-16T04:56:31.153Z,9.70
2019-04-16T04:58:07.245Z,9.80
2019-04-16T04:59:43.582Z,9.73
2019-04-16T05:01:19.853Z,10.30
2019-04-16T05:02:56.049Z,10.70
2019-04-16T05:04:42.658Z,11.13
2019-04-16T05:06:26.818Z,11.50
2019-04-16T05:08:01.421Z,13.53
2019-04-16T05:09:37.680Z,11.90
2019-04-16T05:11:15.834Z,10.37
2019-04-16T05:12:53.562Z,10.40
2019-04-16T05:14:29.905Z,10.40
2019-04-16T05:16:07.106Z,9.70
2019-04-16T05:17:43.473Z,10.77
2019-04-16T05:19:19.748Z,10.53
2019-04-16T05:20:56.021Z,10.00
2019-04-16T05:22:33.215Z,10.53
2019-04-16T05:24:09.710Z,11.33
2019-04-16T05:25:46.051Z,10.80
2019-04-16T05:27:22.388Z,10.73
2019-04-16T05:29:16.066Z,10.33
2019-04-16T05:30:52.166Z,11.13
2019-04-16T05:32:32.982Z,11.80
2019-04-16T05:34:06.744Z,11.40
2019-04-16T05:35:43.105Z,10.93
2019-04-16T05:37:19.849Z,11.07
2019-04-16T05:38:57.175Z,13.80
2019-04-16T05:40:35.165Z,12.67
2019-04-16T05:42:12.359Z,11.60
2019-04-16T05:43:48.457Z,12.87
2019-04-16T05:45:25.744Z,20.07
2019-04-16T05:47:02.143Z,12.10
2019-04-16T05:48:38.344Z,11.97
2019-04-16T05:50:14.850Z,11.30
2019-04-16T05:51:51.038Z,11.83
2019-04-16T05:53:27.318Z,12.37
2019-04-16T05:55:24.245Z,12.80
2019-04-16T05:57:02.278Z,11.17
2019-04-16T05:58:38.565Z,11.27
2019-04-16T06:00:19.335Z,12.27
2019-04-16T06:02:15.070Z,10.60
2019-04-16T06:03:52.826Z,12.17
2019-04-16T06:05:28.226Z,11.27
2019-04-16T06:07:07.623Z,12.43
2019-04-16T06:08:42.634Z,9.70
2019-04-16T06:10:19.668Z,10.17
2019-04-16T06:11:56.054Z,11.70
2019-04-16T06:13:32.017Z,10.90
2019-04-16T06:15:13.839Z,10.63
2019-04-16T06:17:08.382Z,9.30
2019-04-16T06:19:01.397Z,10.30
2019-04-16T06:20:39.516Z,10.07
2019-04-16T06:22:15.472Z,10.40
2019-04-16T06:23:54.584Z,10.83
2019-04-16T06:25:35.466Z,9.50
2019-04-16T06:27:30.044Z,11.40
2019-04-16T06:29:12.103Z,10.33
2019-04-16T06:30:59.003Z,11.57
2019-04-16T06:32:45.745Z,10.97
2019-04-16T06:34:32.783Z,12.17
2019-04-16T06:36:22.969Z,9.97
2019-04-16T06:38:09.728Z,11.90
2019-04-16T06:40:00.896Z,10.23
2019-04-16T06:41:42.022Z,10.67
2019-04-16T06:43:26.165Z,9.83
2019-04-16T06:45:04.913Z,10.03
2019-04-16T06:46:49.875Z,9.73
2019-04-16T06:48:27.810Z,10.50
2019-04-16T06:50:31.140Z,9.60
2019-04-16T06:52:17.993Z,9.87
2019-04-16T06:54:12.143Z,9.73
2019-04-16T06:56:05.496Z,9.53
2019-04-16T06:58:00.979Z,9.77
2019-04-16T06:59:44.799Z,9.07
2019-04-16T07:01:41.937Z,9.93
2019-04-16T07:03:18.958Z,9.13
2019-04-16T07:05:12.883Z,10.27
2019-04-16T07:07:08.404Z,9.67
2019-04-16T07:09:03.895Z,9.23
2019-04-16T07:11:00.104Z,8.43
2019-04-16T07:12:38.620Z,6.00
2019-04-16T07:14:15.498Z,4.93
2019-04-16T07:15:53.314Z,4.90
2019-04-16T07:17:33.653Z,5.23
2019-04-16T07:19:11.214Z,4.33
2019-04-16T07:20:48.721Z,4.80
2019-04-16T07:22:25.004Z,5.00
2019-04-16T07:24:01.440Z,5.13
2019-04-16T07:25:41.447Z,4.27
2019-04-16T07:27:19.598Z,3.90
2019-04-16T07:28:58.946Z,4.20
2019-04-16T07:30:40.554Z,4.20
2019-04-16T07:32:17.226Z,5.43
2019-04-16T07:33:56.182Z,6.33
2019-04-16T07:35:50.153Z,4.33
2019-04-16T07:37:37.932Z,5.20
2019-04-16T07:39:28.864Z,5.23
2019-04-16T07:41:12.383Z,4.93
2019-04-16T07:43:06.971Z,4.70
2019-04-16T07:45:01.128Z,4.93
2019-04-16T07:46:58.181Z,6.10
2019-04-16T07:48:38.843Z,5.63
2019-04-16T07:50:25.948Z,4.67
2019-04-16T07:52:07.006Z,5.50
2019-04-16T07:53:47.177Z,5.77
2019-04-16T07:55:27.499Z,3.63
2019-04-16T07:57:03.925Z,3.73
2019-04-16T07:58:40.295Z,3.73
2019-04-16T08:00:16.767Z,3.43
2019-04-16T08:01:53.140Z,3.27
2019-04-16T08:03:29.344Z,3.03
2019-04-16T08:05:09.335Z,4.33
2019-04-16T08:06:47.298Z,3.27
2019-04-16T08:08:24.611Z,3.97
2019-04-16T08:10:03.307Z,3.80
2019-04-16T08:11:39.839Z,3.83
2019-04-16T08:13:17.966Z,3.83
2019-04-16T08:14:54.162Z,3.17
2019-04-16T08:16:30.624Z,4.07
2019-04-16T08:18:07.160Z,3.17
2019-04-16T08:19:44.804Z,3.17
2019-04-16T08:21:23.091Z,3.17
2019-04-16T08:23:26.671Z,4.40
2019-04-16T08:25:04.635Z,4.00
2019-04-16T08:26:44.500Z,4.77
2019-04-16T08:28:19.489Z,4.70
2019-04-16T08:29:55.870Z,3.87
2019-04-16T08:31:34.966Z,4.20
2019-04-16T08:33:11.699Z,4.83
2019-04-16T08:34:48.135Z,4.30
2019-04-16T08:36:24.547Z,5.87
2019-04-16T08:38:00.834Z,5.30
2019-04-16T08:39:39.825Z,5.27
2019-04-16T08:41:19.973Z,4.77
2019-04-16T08:42:56.995Z,5.40
2019-04-16T08:44:35.464Z,5.20
2019-04-16T08:46:11.033Z,5.70
2019-04-16T08:47:47.405Z,5.80
2019-04-16T08:49:23.839Z,6.07
2019-04-16T08:51:00.232Z,6.30
2019-04-16T08:52:38.566Z,6.50
2019-04-16T08:54:17.683Z,6.03
2019-04-16T08:55:52.648Z,4.60
2019-04-16T08:57:31.766Z,3.57
2019-04-16T08:59:10.045Z,4.37
2019-04-16T09:00:47.718Z,4.30
2019-04-16T09:02:26.999Z,4.50
2019-04-16T09:04:04.546Z,4.00
2019-04-16T09:05:41.535Z,3.43
2019-04-16T09:07:36.189Z,4.43
2019-04-16T09:09:25.453Z,2.93
2019-04-16T09:11:03.355Z,3.77
2019-04-16T09:12:44.905Z,3.47
2019-04-16T09:14:21.026Z,2.53
2019-04-16T09:15:56.201Z,4.30
2019-04-16T09:17:34.081Z,5.17
2019-04-16T09:19:11.989Z,5.03
2019-04-16T09:20:48.413Z,4.20
2019-04-16T09:22:24.496Z,5.00
2019-04-16T09:24:14.629Z,5.40
2019-04-16T09:25:52.625Z,4.43
2019-04-16T09:27:43.823Z,4.73
2019-04-16T09:29:40.325Z,4.40
2019-04-16T09:31:35.775Z,4.20
2019-04-16T09:33:24.490Z,4.13
2019-04-16T09:35:09.616Z,4.23
2019-04-16T09:36:53.832Z,4.30
2019-04-16T09:38:46.700Z,3.77
2019-04-16T09:40:30.668Z,3.63
2019-04-16T09:42:07.099Z,4.40
2019-04-16T09:43:45.149Z,3.50
2019-04-16T09:45:24.363Z,3.23
2019-04-16T09:47:00.454Z,3.67
2019-04-16T09:48:37.044Z,3.53
2019-04-16T09:50:13.472Z,3.80
2019-04-16T09:51:51.098Z,3.80
2019-04-16T09:53:33.925Z,3.80
2019-04-16T09:55:06.942Z,3.47
2019-04-16T09:56:43.257Z,3.70
2019-04-16T09:58:22.129Z,2.50
2019-04-16T10:00:00.224Z,3.57
2019-04-16T10:01:41.232Z,3.27
2019-04-16T10:03:36.767Z,3.10
2019-04-16T10:05:13.468Z,3.20
2019-04-16T10:06:49.830Z,4.03
2019-04-16T10:08:29.213Z,3.67
2019-04-16T10:10:06.343Z,3.40
2019-04-16T10:11:42.782Z,3.47
2019-04-16T10:13:30.091Z,3.90
2019-04-16T10:14:58.200Z,4.03
2019-04-16T10:16:34.634Z,3.77
2019-04-16T10:18:10.983Z,3.60
2019-04-16T10:19:47.144Z,4.27
2019-04-16T10:21:23.423Z,3.10
2019-04-16T10:23:00.943Z,3.70
2019-04-16T10:24:54.933Z,3.20
2019-04-16T10:26:31.326Z,2.97
2019-04-16T10:28:14.795Z,3.50
2019-04-16T10:29:51.138Z,3.63
2019-04-16T10:31:27.687Z,3.67
2019-04-16T10:33:03.918Z,2.50
2019-04-16T10:34:40.212Z,3.87
2019-04-16T10:36:16.548Z,3.47
2019-04-16T10:37:52.910Z,3.70
2019-04-16T10:39:34.037Z,3.37
2019-04-16T10:41:12.044Z,3.50
2019-04-16T10:42:50.100Z,3.30
2019-04-16T10:44:32.126Z,4.17
2019-04-16T10:46:25.484Z,4.23
2019-04-16T10:48:18.779Z,3.40
2019-04-16T10:50:12.961Z,3.33
2019-04-16T10:51:49.150Z,3.30
2019-04-16T10:53:27.059Z,3.67
2019-04-16T10:55:09.351Z,3.23
2019-04-16T10:57:03.939Z,4.00
2019-04-16T10:58:42.828Z,4.33
2019-04-16T11:00:22.711Z,4.27
2019-04-16T11:02:10.887Z,4.60
2019-04-16T11:04:01.018Z,4.10
2019-04-16T11:05:44.413Z,4.23
2019-04-16T11:07:28.607Z,4.77
2019-04-16T11:09:07.280Z,4.53
2019-04-16T11:10:43.592Z,4.87
2019-04-16T11:12:20.141Z,4.30
2019-04-16T11:14:00.126Z,4.40
2019-04-16T11:15:34.497Z,4.57
2019-04-16T11:17:10.887Z,3.57
2019-04-16T11:18:47.456Z,4.83
2019-04-16T11:20:23.837Z,3.80
2019-04-16T11:22:03.928Z,4.70
2019-04-16T11:23:38.243Z,3.97
2019-04-16T11:25:14.699Z,3.67
2019-04-16T11:26:51.122Z,4.37
2019-04-16T11:28:27.474Z,3.93
2019-04-16T11:30:06.575Z,3.70
2019-04-16T11:31:42.946Z,3.67
2019-04-16T11:33:19.450Z,4.47
2019-04-16T11:34:55.857Z,4.87
2019-04-16T11:36:32.316Z,3.23
2019-04-16T11:38:09.028Z,3.20
2019-04-16T11:39:45.508Z,3.63
2019-04-16T11:41:21.785Z,3.10
2019-04-16T11:42:58.172Z,3.70
2019-04-16T11:44:34.674Z,3.63
2019-04-16T11:46:11.478Z,3.27
2019-04-16T11:47:48.222Z,3.53
2019-04-16T11:49:24.782Z,3.03
2019-04-16T11:51:01.111Z,3.70
2019-04-16T11:52:39.911Z,3.27
2019-04-16T11:54:15.511Z,2.83
2019-04-16T11:55:51.934Z,3.13
2019-04-16T11:57:29.467Z,3.80
2019-04-16T11:59:06.626Z,3.37
2019-04-16T12:01:01.127Z,3.60
2019-04-16T12:02:43.060Z,4.07
2019-04-16T12:04:23.785Z,3.80
2019-04-16T12:06:27.748Z,3.60
2019-04-16T12:08:03.219Z,4.10
2019-04-16T12:09:52.755Z,3.73
2019-04-16T12:11:48.948Z,3.43
2019-04-16T12:13:43.124Z,3.77
2019-04-16T12:15:25.073Z,3.43
2019-04-16T12:17:20.996Z,3.40
2019-04-16T12:19:15.374Z,3.20
2019-04-16T12:21:02.212Z,3.60
2019-04-16T12:22:55.320Z,3.63
2019-04-16T12:24:34.371Z,3.70
2019-04-16T12:26:29.870Z,3.87
2019-04-16T12:28:22.847Z,3.63
2019-04-16T12:30:17.061Z,4.67
2019-04-16T12:31:57.580Z,3.97
2019-04-16T12:33:47.652Z,3.70
2019-04-16T12:35:31.069Z,3.63
2019-04-16T12:37:12.184Z,3.00
2019-04-16T12:39:06.468Z,3.10
2019-04-16T12:41:00.893Z,3.07
2019-04-16T12:42:42.235Z,3.27
2019-04-16T12:44:25.738Z,2.67
2019-04-16T12:46:12.835Z,2.57
2019-04-16T12:47:59.638Z,2.77
2019-04-16T12:49:53.703Z,3.47
2019-04-16T12:51:43.760Z,3.53
2019-04-16T12:53:21.715Z,3.47
2019-04-16T12:54:59.884Z,3.00
2019-04-16T12:56:41.370Z,3.20
2019-04-16T12:58:30.769Z,3.30
2019-04-16T13:00:13.811Z,4.53
2019-04-16T13:02:12.201Z,5.27
2019-04-16T13:04:02.471Z,5.20
2019-04-16T13:05:47.120Z,4.03
2019-04-16T13:07:40.250Z,5.10
2019-04-16T13:09:36.470Z,3.90
2019-04-16T13:11:32.027Z,3.90
2019-04-16T13:13:13.859Z,4.10
2019-04-16T13:15:08.100Z,5.57
2019-04-16T13:17:03.485Z,5.70
2019-04-16T13:19:01.753Z,10.63
2019-04-16T13:20:57.486Z,7.13
2019-04-16T13:22:35.886Z,4.93
2019-04-16T13:24:16.707Z,5.60
2019-04-16T13:26:11.861Z,7.60
2019-04-16T13:27:47.835Z,5.93
2019-04-16T13:29:28.936Z,7.47
2019-04-16T13:31:03.492Z,6.50
2019-04-16T13:32:39.872Z,6.77
2019-04-16T13:34:18.664Z,11.47
2019-04-16T13:35:54.264Z,8.43
2019-04-16T13:37:36.989Z,5.23
2019-04-16T13:39:12.625Z,4.80
2019-04-16T13:40:50.200Z,4.87
2019-04-16T13:42:27.188Z,4.67
2019-04-16T13:44:17.545Z,4.40
2019-04-16T13:45:57.926Z,4.53
2019-04-16T13:47:34.839Z,4.13
2019-04-16T13:49:15.461Z,4.33
2019-04-16T13:50:53.538Z,4.20
2019-04-16T13:52:29.966Z,4.07
2019-04-16T13:54:27.728Z,5.03
2019-04-16T13:56:18.701Z,4.07
2019-04-16T13:58:00.264Z,3.97
2019-04-16T13:59:56.764Z,4.40
2019-04-16T14:01:49.767Z,4.27
2019-04-16T14:03:26.108Z,3.77
2019-04-16T14:05:05.005Z,4.40
2019-04-16T14:06:40.706Z,5.23
2019-04-16T14:08:17.052Z,5.33
2019-04-16T14:09:53.389Z,10.00
2019-04-16T14:11:29.834Z,6.30
2019-04-16T14:13:06.431Z,7.93
2019-04-16T14:14:42.746Z,8.43
2019-04-16T14:16:19.058Z,6.63
2019-04-16T14:17:59.168Z,6.20
2019-04-16T14:19:34.710Z,6.50
2019-04-16T14:21:11.564Z,5.47
2019-04-16T14:22:47.936Z,4.03
2019-04-16T14:24:24.226Z,3.43
2019-04-16T14:26:01.689Z,2.70
2019-04-16T14:27:38.003Z,4.03
2019-04-16T14:29:14.267Z,4.10
2019-04-16T14:30:50.670Z,4.30
2019-04-16T14:32:27.277Z,4.70
2019-04-16T14:34:11.323Z,4.00
2019-04-16T14:35:47.833Z,4.43
2019-04-16T14:37:25.323Z,4.63
2019-04-16T14:39:13.731Z,6.50
2019-04-16T14:40:51.030Z,5.97
2019-04-16T14:42:27.371Z,12.60
2019-04-16T14:44:05.956Z,12.80
2019-04-16T14:45:57.558Z,10.57
2019-04-16T14:47:22.034Z,3.20
2019-04-16T14:48:58.202Z,6.17
2019-04-16T14:50:34.917Z,6.27
2019-04-16T14:52:11.188Z,6.90
2019-04-16T14:53:51.320Z,7.40
2019-04-16T14:55:32.878Z,5.13
2019-04-16T14:57:11.204Z,9.33
2019-04-16T14:59:05.617Z,10.90
2019-04-16T15:01:00.411Z,3.67
2019-04-16T15:02:41.297Z,4.30
2019-04-16T15:04:19.229Z,7.23
2019-04-16T15:06:03.415Z,7.00
2019-04-16T15:07:50.684Z,4.07
2019-04-16T15:11:37.411Z,8.40
2019-04-16T15:13:16.436Z,12.97
2019-04-16T15:14:52.474Z,13.07
2019-04-16T15:16:30.847Z,7.10
2019-04-16T15:18:09.094Z,5.70
2019-04-16T15:19:49.814Z,4.87
2019-04-16T15:21:28.483Z,4.43
2019-04-16T15:23:15.366Z,4.33
2019-04-16T15:24:59.321Z,6.13
2019-04-16T15:26:46.302Z,3.43
2019-04-16T15:28:26.895Z,4.10
2019-04-16T15:30:12.002Z,5.70
2019-04-16T15:32:04.346Z,4.47
2019-04-16T15:33:39.866Z,4.80
2019-04-16T15:35:20.509Z,4.97
2019-04-16T15:37:14.874Z,5.73
2019-04-16T15:38:58.793Z,6.65
2019-04-16T15:40:40.352Z,5.20
2019-04-16T15:42:18.548Z,5.50
2019-04-16T15:44:05.723Z,5.83
2019-04-16T15:45:58.890Z,5.07
2019-04-16T15:47:46.917Z,3.60
2019-04-16T15:49:24.691Z,4.90
2019-04-16T15:51:02.427Z,4.63
2019-04-16T15:52:46.324Z,5.70
2019-04-16T15:54:39.897Z,4.60
2019-04-16T15:56:17.941Z,4.07
2019-04-16T15:58:19.496Z,13.30
2019-04-16T16:00:00.009Z,4.17
2019-04-16T16:01:54.075Z,5.60
2019-04-16T16:03:36.103Z,3.80
2019-04-16T16:05:20.326Z,3.17
2019-04-16T16:06:58.225Z,3.63
2019-04-16T16:08:48.425Z,4.30
2019-04-16T16:10:26.331Z,8.43
2019-04-16T16:12:10.046Z,9.50
2019-04-16T16:13:45.303Z,11.47
2019-04-16T16:15:21.478Z,4.30
2019-04-16T16:16:57.754Z,4.57
2019-04-16T16:18:35.706Z,4.23
2019-04-16T16:20:12.947Z,4.67
2019-04-16T16:21:49.118Z,4.83
2019-04-16T16:23:25.314Z,4.63
2019-04-16T16:25:05.361Z,6.80
2019-04-16T16:26:39.696Z,4.83
2019-04-16T16:28:15.955Z,2.83
2019-04-16T16:29:52.440Z,3.53
2019-04-16T16:31:32.271Z,4.47
2019-04-16T16:33:06.843Z,3.53
2019-04-16T16:34:43.266Z,5.87
2019-04-16T16:36:19.688Z,3.17
2019-04-16T16:37:56.070Z,7.53
2019-04-16T16:39:32.488Z,5.57
2019-04-16T16:41:08.565Z,4.23
2019-04-16T16:42:44.818Z,4.37
2019-04-16T16:44:21.078Z,7.63
2019-04-16T16:46:08.020Z,7.73
2019-04-16T16:47:45.023Z,9.50
2019-04-16T16:49:21.428Z,6.67
2019-04-16T16:50:57.829Z,7.60
2019-04-16T16:52:39.918Z,8.43
2019-04-16T16:54:24.131Z,11.40
2019-04-16T16:56:03.075Z,10.77
2019-04-16T16:57:44.404Z,13.07
2019-04-16T16:59:39.638Z,12.93
2019-04-16T17:01:34.696Z,15.37
2019-04-16T17:03:16.582Z,19.60
2019-04-16T17:04:54.802Z,24.87
2019-04-16T17:06:31.381Z,13.13
2019-04-16T17:08:07.754Z,14.87
2019-04-16T17:09:43.948Z,19.10
2019-04-16T17:11:20.377Z,9.37
2019-04-16T17:12:56.634Z,10.83
2019-04-16T17:14:37.773Z,12.47
2019-04-16T17:16:14.499Z,9.77
2019-04-16T17:17:51.414Z,10.13
2019-04-16T17:19:27.682Z,11.17
2019-04-16T17:21:04.014Z,12.77
2019-04-16T17:22:40.965Z,13.63
2019-04-16T17:24:17.368Z,3.60
2019-04-16T17:25:57.232Z,8.03
2019-04-16T17:27:31.628Z,11.73
2019-04-16T17:29:08.062Z,14.07
2019-04-16T17:30:44.463Z,16.73
2019-04-16T17:32:20.962Z,15.07
2019-04-16T17:33:57.359Z,23.53
2019-04-16T17:35:33.818Z,14.83
2019-04-16T17:37:10.079Z,7.37
2019-04-16T17:38:46.612Z,14.00
2019-04-16T17:40:28.442Z,8.07
2019-04-16T17:42:05.755Z,14.50
2019-04-16T17:43:42.032Z,12.47
2019-04-16T17:45:26.946Z,8.57
2019-04-16T17:47:30.884Z,9.20
2019-04-16T17:49:01.904Z,12.83
2019-04-16T17:50:42.836Z,15.87
2019-04-16T17:52:37.626Z,14.13
2019-04-16T17:54:31.361Z,17.17
2019-04-16T17:56:25.132Z,13.37
2019-04-16T17:58:02.964Z,17.60
2019-04-16T17:59:41.203Z,17.93
2019-04-16T18:01:35.811Z,14.87
2019-04-16T18:03:30.233Z,13.67
2019-04-16T18:05:12.748Z,15.13
2019-04-16T18:06:48.906Z,16.57
2019-04-16T18:08:26.944Z,19.23
2019-04-16T18:10:06.073Z,14.03
2019-04-16T18:13:56.430Z,17.37
2019-04-16T18:15:50.797Z,7.70
2019-04-16T18:17:28.911Z,12.33
2019-04-16T18:19:06.915Z,10.87
2019-04-16T18:20:57.147Z,16.03
2019-04-16T18:22:27.621Z,12.80
2019-04-16T18:24:05.782Z,17.47
2019-04-16T18:25:55.152Z,17.27
2019-04-16T18:27:33.447Z,20.60
2019-04-16T18:29:32.676Z,12.53
2019-04-16T18:31:16.616Z,24.80
2019-04-16T18:33:05.681Z,18.07
2019-04-16T18:34:45.980Z,26.77
2019-04-16T18:36:24.041Z,19.87
2019-04-16T18:38:01.548Z,20.70
2019-04-16T18:39:45.724Z,22.00
2019-04-16T18:41:30.662Z,22.90
2019-04-16T18:43:24.414Z,27.13
2019-04-16T18:45:08.081Z,24.63
2019-04-16T18:47:04.988Z,22.13
2019-04-16T18:48:58.290Z,28.57
2019-04-16T18:50:34.651Z,24.03
2019-04-16T18:52:10.923Z,24.83
2019-04-16T18:53:47.293Z,26.87
2019-04-16T18:55:24.733Z,25.40
2019-04-16T18:57:01.163Z,26.97
2019-04-16T18:58:37.503Z,23.60
2019-04-16T19:00:15.668Z,29.17
2019-04-16T19:01:53.162Z,32.93
2019-04-16T19:03:29.580Z,31.37
2019-04-16T19:05:06.751Z,29.67
2019-04-16T19:06:43.156Z,31.93
2019-04-16T19:08:19.615Z,23.00
2019-04-16T19:09:56.488Z,24.70
2019-04-16T19:11:32.873Z,27.73
2019-04-16T19:13:11.563Z,24.20
2019-04-16T19:14:47.331Z,28.03
2019-04-16T19:16:23.799Z,29.13
2019-04-16T19:18:00.570Z,30.73
2019-04-16T19:19:36.920Z,26.00
2019-04-16T19:21:13.354Z,28.57
2019-04-16T19:22:50.700Z,33.20
2019-04-16T19:24:27.196Z,31.83
2019-04-16T19:26:03.626Z,33.33
2019-04-16T19:27:39.920Z,32.53
2019-04-16T19:29:15.792Z,34.37
2019-04-16T19:30:52.688Z,30.57
2019-04-16T19:32:29.313Z,35.47
2019-04-16T19:34:10.192Z,40.77
2019-04-16T19:35:44.158Z,32.60
2019-04-16T19:37:20.419Z,31.53
2019-04-16T19:38:56.933Z,31.83
2019-04-16T19:40:33.276Z,36.97
2019-04-16T19:42:11.439Z,37.90
2019-04-16T19:43:47.738Z,31.23
2019-04-16T19:45:24.119Z,33.97
2019-04-16T19:47:02.442Z,31.33
2019-04-16T19:48:42.210Z,38.33
2019-04-16T19:50:18.579Z,41.40
2019-04-16T19:51:54.993Z,51.63
2019-04-16T19:53:31.334Z,34.30
2019-04-16T19:55:12.037Z,33.83
2019-04-16T19:56:51.129Z,35.80
2019-04-16T19:58:25.385Z,38.97
2019-04-16T20:00:01.819Z,38.60
2019-04-16T20:01:38.319Z,45.93
2019-04-16T20:03:14.798Z,49.60
2019-04-16T20:04:51.145Z,41.47
2019-04-16T20:06:28.102Z,38.60
2019-04-16T20:08:04.611Z,45.63
2019-04-16T20:09:41.087Z,46.43
2019-04-16T20:11:20.373Z,42.27
2019-04-16T20:12:57.452Z,40.30
2019-04-16T20:14:36.217Z,36.70
2019-04-16T20:16:11.845Z,38.13
2019-04-16T20:17:48.174Z,40.70
2019-04-16T20:19:24.414Z,35.53
2019-04-16T20:21:01.763Z,45.70
2019-04-16T20:22:38.704Z,42.60
2019-04-16T20:24:15.229Z,39.23
2019-04-16T20:25:51.039Z,40.37
2019-04-16T20:27:28.210Z,42.17
2019-04-16T20:29:04.168Z,45.53
2019-04-16T20:30:40.476Z,40.03
2019-04-16T20:32:16.737Z,35.67
2019-04-16T20:33:53.393Z,36.93
2019-04-16T20:35:29.714Z,45.47
2019-04-16T20:37:06.305Z,44.13
2019-04-16T20:38:43.425Z,41.93
2019-04-16T20:40:19.830Z,40.17
2019-04-16T20:41:59.230Z,39.33
2019-04-16T20:43:34.014Z,41.50
2019-04-16T20:45:11.114Z,41.53
2019-04-16T20:46:47.310Z,40.50
2019-04-16T20:48:23.617Z,43.33
2019-04-16T20:50:03.483Z,43.50
2019-04-16T20:51:38.019Z,45.10
2019-04-16T20:53:14.257Z,41.87
2019-04-16T20:54:54.530Z,41.07
2019-04-16T20:56:30.923Z,40.93
2019-04-16T20:58:10.158Z,41.97
2019-04-16T20:59:46.620Z,39.43
2019-04-16T21:01:33.738Z,39.40
2019-04-16T21:03:03.147Z,44.40
2019-04-16T21:04:39.297Z,39.43
2019-04-16T21:06:15.587Z,40.80
2019-04-16T21:07:52.053Z,35.10
2019-04-16T21:09:30.020Z,44.07
2019-04-16T21:11:08.812Z,44.90
2019-04-16T21:12:45.371Z,44.37
2019-04-16T21:14:22.761Z,45.33
2019-04-16T21:16:01.336Z,43.60
2019-04-16T21:17:39.109Z,42.13
2019-04-16T21:19:23.002Z,42.43
2019-04-16T21:20:53.295Z,43.03
2019-04-16T21:22:29.829Z,39.13
2019-04-16T21:24:08.174Z,40.67
2019-04-16T21:25:45.977Z,38.33
2019-04-16T21:27:22.518Z,37.83
2019-04-16T21:29:02.015Z,39.57
2019-04-16T21:30:42.896Z,42.10
2019-04-16T21:32:22.633Z,39.70
2019-04-16T21:34:00.866Z,37.33
2019-04-16T21:35:39.074Z,40.63
2019-04-16T21:37:17.144Z,41.17
2019-04-16T21:39:08.626Z,38.73
2019-04-16T21:40:45.076Z,39.40
2019-04-16T21:42:21.345Z,40.53
2019-04-16T21:43:57.556Z,40.03
2019-04-16T21:45:33.792Z,39.67
2019-04-16T21:47:10.162Z,39.17
2019-04-16T21:48:46.492Z,46.07
2019-04-16T21:50:22.886Z,41.03
2019-04-16T21:52:08.290Z,42.00
2019-04-16T21:53:44.636Z,41.93
2019-04-16T21:55:21.033Z,39.40
2019-04-16T21:56:57.281Z,39.47
2019-04-16T21:58:33.710Z,39.43
2019-04-16T22:00:12.981Z,40.47